Time;durP1;ratioP1;P1;durP2;ratioP2;P2;SDS_P1;SDS_P2;PMS_P1;PMS_P2;Temp;Humidity;BMP_temperature;BMP_pressure;BME280_temperature;BME280_humidity;BME280_pressure;Samples;Min_cycle;Max_cycle;Signal;HPM_P1;HPM_P2
2023/11/08 00:00:22;;;;;;;5.07;3.10;;;18.20;64.40;;;;;;4953766;28;20564;-76
2023/11/08 00:02:50;;;;;;;4.23;3.33;;;18.20;64.40;;;;;;4951347;29;20443;-76
2023/11/08 00:05:18;;;;;;;4.93;3.57;;;18.20;64.30;;;;;;4952633;29;20526;-75
2023/11/08 00:07:46;;;;;;;3.93;3.53;;;18.20;64.40;;;;;;4958706;28;20513;-77
2023/11/08 00:10:14;;;;;;;4.30;3.90;;;18.20;64.20;;;;;;4958258;28;20510;-75
2023/11/08 00:12:44;;;;;;;5.93;3.40;;;18.20;64.20;;;;;;4953560;29;20477;-75
2023/11/08 00:15:12;;;;;;;5.10;3.60;;;18.20;64.40;;;;;;4954732;28;20794;-75
2023/11/08 00:17:40;;;;;;;3.80;3.43;;;18.20;64.40;;;;;;4955069;28;20603;-75
2023/11/08 00:20:11;;;;;;;6.17;4.00;;;18.20;64.40;;;;;;4953995;29;20495;-75
2023/11/08 00:22:39;;;;;;;4.30;3.47;;;18.20;64.20;;;;;;4954936;28;20494;-75
2023/11/08 00:25:08;;;;;;;4.43;3.57;;;18.20;64.40;;;;;;4951322;28;20488;-75
2023/11/08 00:27:36;;;;;;;6.77;3.60;;;18.20;64.50;;;;;;4954625;28;20471;-75
2023/11/08 00:30:07;;;;;;;3.83;3.43;;;18.20;64.30;;;;;;4954811;28;20475;-75
2023/11/08 00:32:35;;;;;;;4.00;3.60;;;18.10;64.30;;;;;;4954575;29;20406;-75
2023/11/08 00:35:03;;;;;;;8.43;4.30;;;18.10;64.40;;;;;;4954552;29;20455;-74
2023/11/08 00:37:31;;;;;;;6.77;4.13;;;18.10;64.20;;;;;;4954612;29;20443;-75
2023/11/08 00:39:59;;;;;;;3.60;3.30;;;18.10;64.40;;;;;;4954790;28;20479;-75
2023/11/08 00:42:27;;;;;;;5.00;3.50;;;18.10;64.50;;;;;;4954587;29;20507;-75
2023/11/08 00:44:56;;;;;;;3.63;3.13;;;18.10;64.50;;;;;;4954436;29;20510;-75
2023/11/08 00:47:26;;;;;;;6.60;3.30;;;18.10;64.40;;;;;;4954190;29;20478;-75
2023/11/08 00:49:54;;;;;;;5.83;3.40;;;18.10;64.60;;;;;;4954575;28;20459;-75
2023/11/08 00:52:23;;;;;;;5.17;3.60;;;18.10;64.80;;;;;;4954576;28;20506;-75
2023/11/08 00:54:51;;;;;;;4.63;3.67;;;18.10;64.50;;;;;;4949582;29;20431;-77
2023/11/08 00:57:19;;;;;;;3.90;3.00;;;18.10;64.60;;;;;;4941254;28;20456;-77
2023/11/08 00:59:46;;;;;;;3.40;3.10;;;18.10;64.80;;;;;;4935298;29;20464;-76
2023/11/08 01:02:15;;;;;;;5.60;3.30;;;18.10;64.60;;;;;;4935283;29;20483;-76
2023/11/08 01:04:44;;;;;;;3.53;3.23;;;18.10;64.60;;;;;;4935279;29;20487;-76
2023/11/08 01:07:12;;;;;;;6.57;3.50;;;18.10;64.50;;;;;;4935493;29;20471;-76
2023/11/08 01:09:40;;;;;;;4.37;2.90;;;18.10;64.80;;;;;;4935729;29;20485;-76
2023/11/08 01:12:08;;;;;;;8.40;3.83;;;18.10;64.70;;;;;;4935579;29;20468;-76
2023/11/08 01:14:36;;;;;;;6.47;3.50;;;18.00;64.50;;;;;;4935371;29;20448;-76
2023/11/08 01:17:05;;;;;;;5.00;3.60;;;18.00;64.50;;;;;;4951307;29;20443;-75
2023/11/08 01:19:35;;;;;;;7.13;3.40;;;18.00;64.70;;;;;;4954528;28;20447;-75
2023/11/08 01:22:05;;;;;;;3.97;3.30;;;18.00;64.90;;;;;;4954613;28;20479;-75
2023/11/08 01:24:34;;;;;;;3.50;3.20;;;18.00;64.80;;;;;;4954341;28;20525;-76
2023/11/08 01:27:03;;;;;;;3.73;3.30;;;18.00;64.90;;;;;;4954206;28;20475;-75
2023/11/08 01:29:32;;;;;;;4.90;2.93;;;18.00;64.80;;;;;;4954186;28;20481;-75
2023/11/08 01:32:01;;;;;;;3.90;3.10;;;18.00;64.80;;;;;;4954354;28;20502;-75
2023/11/08 01:34:29;;;;;;;3.67;2.90;;;18.00;64.90;;;;;;4954268;29;20486;-76
2023/11/08 01:36:57;;;;;;;4.37;3.33;;;18.00;65.10;;;;;;4954420;28;20451;-75
2023/11/08 01:39:26;;;;;;;4.57;3.50;;;18.00;64.80;;;;;;4954022;28;20453;-75
2023/11/08 01:41:55;;;;;;;3.20;2.90;;;18.00;64.90;;;;;;4954457;29;20436;-76
2023/11/08 01:44:23;;;;;;;4.90;3.20;;;18.00;64.90;;;;;;4954208;29;20450;-75
2023/11/08 01:46:53;;;;;;;3.17;2.97;;;18.00;64.80;;;;;;4954344;28;20547;-76
2023/11/08 01:49:21;;;;;;;3.83;3.40;;;18.00;65.10;;;;;;4954170;28;20483;-75
2023/11/08 01:51:50;;;;;;;4.57;3.03;;;18.00;64.80;;;;;;4954980;28;20502;-75
2023/11/08 01:54:19;;;;;;;3.57;3.07;;;18.00;64.90;;;;;;4954375;29;20451;-76
2023/11/08 01:56:49;;;;;;;3.40;3.10;;;17.90;64.80;;;;;;4958436;29;20439;-75
2023/11/08 01:59:18;;;;;;;12.30;3.40;;;17.90;64.40;;;;;;4957783;29;20447;-75
2023/11/08 02:01:49;;;;;;;4.37;3.20;;;17.90;64.60;;;;;;4957613;29;20519;-75
2023/11/08 02:04:17;;;;;;;5.00;3.17;;;17.90;64.90;;;;;;4956618;28;20463;-75
2023/11/08 02:06:44;;;;;;;4.03;3.40;;;17.90;64.70;;;;;;4956929;29;20439;-76
2023/11/08 02:09:13;;;;;;;3.67;3.03;;;17.90;64.80;;;;;;4957662;28;20573;-76
2023/11/08 02:11:41;;;;;;;8.13;3.47;;;17.90;64.80;;;;;;4957128;28;20466;-76
2023/11/08 02:14:10;;;;;;;4.13;3.07;;;17.80;64.60;;;;;;4950447;28;20542;-75
2023/11/08 02:16:40;;;;;;;4.47;2.87;;;17.80;64.80;;;;;;4937742;29;20495;-76
2023/11/08 02:19:08;;;;;;;4.13;3.20;;;17.80;64.60;;;;;;4945122;29;20445;-76
2023/11/08 02:21:36;;;;;;;7.17;3.20;;;17.80;64.90;;;;;;4956747;28;20522;-76
2023/11/08 02:24:18;;;;;;;4.33;3.30;;;17.80;64.80;;;;;;4957058;29;20498;-75
2023/11/08 02:26:48;;;;;;;3.50;3.20;;;17.90;65.00;;;;;;4956794;28;20439;-76
2023/11/08 02:29:15;;;;;;;4.47;3.03;;;17.80;65.10;;;;;;4957905;28;20443;-76
2023/11/08 02:31:43;;;;;;;3.70;2.80;;;17.90;65.10;;;;;;4950911;28;20522;-76
2023/11/08 02:34:11;;;;;;;3.60;3.30;;;17.80;64.80;;;;;;4953533;29;20521;-76
2023/11/08 02:36:40;;;;;;;3.13;2.83;;;17.90;65.00;;;;;;4956761;28;20435;-76
2023/11/08 02:39:08;;;;;;;3.20;3.00;;;17.80;64.90;;;;;;4956381;28;20443;-76
2023/11/08 02:41:37;;;;;;;3.23;2.93;;;17.90;65.00;;;;;;4956724;28;20478;-76
2023/11/08 02:44:08;;;;;;;3.83;3.00;;;17.90;65.20;;;;;;4956879;28;21042;-76
2023/11/08 02:46:36;;;;;;;3.07;2.80;;;17.80;64.90;;;;;;4956853;29;20446;-75
2023/11/08 02:49:06;;;;;;;2.73;2.40;;;17.90;64.90;;;;;;4956415;28;20545;-75
2023/11/08 02:51:35;;;;;;;4.70;3.30;;;17.90;65.00;;;;;;4956846;28;20509;-75
2023/11/08 02:54:03;;;;;;;3.60;3.30;;;17.80;64.70;;;;;;4956596;28;20556;-75
2023/11/08 02:56:40;;;;;;;6.00;3.33;;;17.80;65.20;;;;;;4941878;29;20486;-75
2023/11/08 02:59:08;;;;;;;3.70;3.40;;;17.80;65.00;;;;;;4937546;29;20830;-75
2023/11/08 03:01:37;;;;;;;3.60;3.23;;;17.80;64.80;;;;;;4938387;29;20478;-76
2023/11/08 03:04:05;;;;;;;3.17;2.83;;;17.80;65.20;;;;;;4936858;29;20440;-76
2023/11/08 03:06:33;;;;;;;6.13;3.53;;;17.80;65.00;;;;;;4947451;29;20446;-76
2023/11/08 03:09:02;;;;;;;5.60;3.07;;;17.80;64.90;;;;;;4955656;29;20479;-75
2023/11/08 03:11:30;;;;;;;4.43;3.50;;;17.80;65.10;;;;;;4947587;28;20550;-76
2023/11/08 03:14:01;;;;;;;4.07;3.47;;;17.80;65.20;;;;;;4937097;29;20454;-76
2023/11/08 03:16:30;;;;;;;4.63;3.17;;;17.80;65.20;;;;;;4936919;29;20447;-75
2023/11/08 03:18:57;;;;;;;5.00;3.30;;;17.80;65.10;;;;;;4936972;29;20503;-75
2023/11/08 03:21:26;;;;;;;4.77;3.27;;;17.80;65.00;;;;;;4995848;23;20515;-77
2023/11/08 03:23:54;;;;;;;3.87;3.30;;;17.80;65.20;;;;;;4989789;28;20453;-77
2023/11/08 03:26:22;;;;;;;4.80;3.57;;;17.80;65.00;;;;;;4998151;28;20491;-77
2023/11/08 03:28:50;;;;;;;5.37;3.50;;;17.70;65.10;;;;;;4994196;28;20609;-78
2023/11/08 03:31:19;;;;;;;3.60;3.30;;;17.80;65.10;;;;;;5004813;28;20456;-78
2023/11/08 03:33:47;;;;;;;3.40;3.10;;;17.70;65.00;;;;;;5013028;28;20536;-77
2023/11/08 03:36:15;;;;;;;3.43;3.13;;;17.70;65.10;;;;;;5013475;28;20445;-76
2023/11/08 03:38:43;;;;;;;5.13;3.87;;;17.70;65.10;;;;;;5013403;28;20444;-77
2023/11/08 03:41:11;;;;;;;5.37;3.97;;;17.70;65.10;;;;;;5013050;28;20539;-78
2023/11/08 03:43:39;;;;;;;3.90;3.50;;;17.70;65.30;;;;;;5012357;28;20441;-78
2023/11/08 03:46:07;;;;;;;4.87;4.07;;;17.80;65.30;;;;;;5006551;28;20441;-78
2023/11/08 03:48:38;;;;;;;4.33;3.93;;;17.80;65.20;;;;;;5011968;28;20499;-79
2023/11/08 03:51:06;;;;;;;4.90;4.20;;;17.80;65.20;;;;;;5012807;28;20474;-77
2023/11/08 03:53:34;;;;;;;3.97;3.67;;;17.80;65.40;;;;;;5013660;28;20514;-78
2023/11/08 03:56:04;;;;;;;7.20;4.50;;;17.80;65.50;;;;;;5013237;28;20444;-78
2023/11/08 03:58:32;;;;;;;5.10;4.57;;;17.80;65.20;;;;;;5012776;28;20448;-78
2023/11/08 04:01:01;;;;;;;4.83;4.20;;;17.80;65.40;;;;;;5011647;28;20487;-78
2023/11/08 04:03:29;;;;;;;4.67;4.20;;;17.80;65.30;;;;;;5010709;28;20463;-78
2023/11/08 04:05:59;;;;;;;4.70;4.20;;;17.80;65.20;;;;;;5004604;28;20964;-78
2023/11/08 04:08:27;;;;;;;5.30;4.50;;;17.80;65.30;;;;;;5010385;28;20570;-79
2023/11/08 04:10:55;;;;;;;5.60;4.60;;;17.80;65.40;;;;;;5010133;28;20503;-78
2023/11/08 04:13:24;;;;;;;5.37;4.87;;;17.80;65.30;;;;;;5028744;28;20538;-78
2023/11/08 04:15:51;;;;;;;7.53;4.83;;;17.80;65.40;;;;;;5010213;28;20486;-78
2023/11/08 04:18:20;;;;;;;5.57;4.63;;;17.80;65.40;;;;;;5016551;28;20458;-78
2023/11/08 04:20:48;;;;;;;5.67;5.07;;;17.80;65.70;;;;;;5004505;28;20472;-78
2023/11/08 04:23:18;;;;;;;6.50;5.73;;;17.80;65.70;;;;;;5012916;28;20448;-75
2023/11/08 04:25:49;;;;;;;5.33;4.63;;;17.80;65.70;;;;;;5015644;28;20445;-77
2023/11/08 04:28:18;;;;;;;6.10;4.93;;;17.80;65.50;;;;;;5004547;28;20528;-78
2023/11/08 04:30:46;;;;;;;7.20;5.10;;;17.80;65.60;;;;;;4992680;28;20561;-78
2023/11/08 04:33:14;;;;;;;9.67;5.30;;;17.80;65.60;;;;;;5014494;28;20445;-76
2023/11/08 04:35:42;;;;;;;8.70;5.50;;;17.80;65.70;;;;;;5009029;28;20460;-78
2023/11/08 04:38:10;;;;;;;8.47;5.70;;;17.80;65.40;;;;;;4993300;28;20528;-77
2023/11/08 04:40:40;;;;;;;8.23;5.50;;;17.80;65.60;;;;;;5001869;28;20898;-78
2023/11/08 04:43:08;;;;;;;6.33;4.93;;;17.80;65.60;;;;;;5006197;28;20498;-77
2023/11/08 04:45:36;;;;;;;5.27;4.77;;;17.70;65.60;;;;;;5004794;28;20552;-77
2023/11/08 04:48:05;;;;;;;7.43;5.40;;;17.70;65.60;;;;;;5012099;28;20448;-78
2023/11/08 04:50:33;;;;;;;6.97;5.23;;;17.70;65.70;;;;;;5013905;28;20526;-78
2023/11/08 04:53:01;;;;;;;6.90;5.40;;;17.80;65.50;;;;;;5016819;28;20539;-77
2023/11/08 04:55:29;;;;;;;7.70;5.67;;;17.80;65.60;;;;;;5006288;28;20447;-78
2023/11/08 04:57:58;;;;;;;7.30;5.80;;;17.80;65.40;;;;;;5004928;28;20468;-79
2023/11/08 05:00:27;;;;;;;8.10;6.10;;;17.70;65.50;;;;;;5007358;28;20485;-79
2023/11/08 05:02:55;;;;;;;7.10;5.20;;;17.80;65.50;;;;;;5002090;28;20456;-78
2023/11/08 05:05:23;;;;;;;7.13;5.57;;;17.70;65.20;;;;;;5012195;28;20453;-79
2023/11/08 05:07:51;;;;;;;7.23;5.50;;;17.70;65.40;;;;;;5021928;28;20467;-80
2023/11/08 05:10:19;;;;;;;7.37;5.53;;;17.70;65.30;;;;;;5027971;28;20518;-79
2023/11/08 05:12:48;;;;;;;8.03;5.93;;;17.70;65.70;;;;;;5016187;28;20483;-78
2023/11/08 05:15:17;;;;;;;6.20;5.30;;;17.70;65.50;;;;;;5015459;28;20497;-79
2023/11/08 05:17:46;;;;;;;7.60;5.80;;;17.70;65.40;;;;;;5021328;28;20436;-78
2023/11/08 05:20:14;;;;;;;7.10;5.40;;;17.70;65.30;;;;;;5026134;28;20448;-79
2023/11/08 05:22:42;;;;;;;8.17;5.20;;;17.70;65.10;;;;;;5018304;28;20441;-78
2023/11/08 05:25:10;;;;;;;7.97;5.63;;;17.70;65.50;;;;;;5002869;28;20468;-78
2023/11/08 05:27:43;;;;;;;8.10;6.27;;;17.60;65.30;;;;;;5002892;28;20445;-79
2023/11/08 05:30:11;;;;;;;8.00;5.70;;;17.60;65.10;;;;;;5019924;28;20476;-79
2023/11/08 05:32:41;;;;;;;7.40;5.80;;;17.60;65.10;;;;;;5022027;28;20480;-80
2023/11/08 05:35:12;;;;;;;7.90;5.90;;;17.60;65.10;;;;;;5016409;28;20491;-79
2023/11/08 05:37:41;;;;;;;6.40;5.50;;;17.60;65.30;;;;;;5017655;28;20966;-79
2023/11/08 05:40:12;;;;;;;7.27;5.30;;;17.60;65.10;;;;;;5016621;28;20494;-78
2023/11/08 05:42:40;;;;;;;6.97;5.60;;;17.60;65.20;;;;;;5013772;28;20444;-79
2023/11/08 05:45:09;;;;;;;7.43;6.10;;;17.60;65.30;;;;;;5007218;28;20445;-78
2023/11/08 05:47:38;;;;;;;9.17;6.20;;;17.60;65.20;;;;;;5014538;28;20445;-80
2023/11/08 05:50:10;;;;;;;7.80;6.23;;;17.50;65.00;;;;;;5014056;28;20522;-78
2023/11/08 05:52:38;;;;;;;8.00;5.83;;;17.50;65.00;;;;;;5008563;28;20464;-76
2023/11/08 05:55:08;;;;;;;7.30;5.97;;;17.50;65.20;;;;;;5018963;28;20439;-79
2023/11/08 05:57:36;;;;;;;6.53;5.80;;;17.60;65.10;;;;;;5019134;28;20452;-79
2023/11/08 06:00:07;;;;;;;6.93;5.77;;;17.50;65.10;;;;;;5021989;28;20443;-79
2023/11/08 06:02:36;;;;;;;7.30;6.10;;;17.50;65.20;;;;;;5026257;28;20506;-78
2023/11/08 06:05:05;;;;;;;10.60;5.80;;;17.50;65.00;;;;;;5016146;28;20463;-80
2023/11/08 06:07:35;;;;;;;7.20;5.83;;;17.50;65.10;;;;;;5007365;28;20457;-77
2023/11/08 06:10:04;;;;;;;7.63;6.20;;;17.50;65.10;;;;;;5014217;28;20904;-77
2023/11/08 06:12:36;;;;;;;6.73;5.23;;;17.50;65.10;;;;;;5012382;28;20463;-77
2023/11/08 06:15:05;;;;;;;7.10;5.70;;;17.50;65.10;;;;;;5015953;28;20444;-77
2023/11/08 06:17:34;;;;;;;8.07;6.10;;;17.50;65.10;;;;;;5008250;28;20449;-78
2023/11/08 06:20:02;;;;;;;9.47;6.20;;;17.50;64.80;;;;;;5015235;28;20475;-78
2023/11/08 06:22:31;;;;;;;8.60;6.77;;;17.50;65.20;;;;;;5018562;28;20895;-78
2023/11/08 06:25:02;;;;;;;7.03;5.40;;;17.50;65.10;;;;;;5013436;28;20452;-78
2023/11/08 06:27:30;;;;;;;8.67;6.20;;;17.50;64.80;;;;;;5022953;28;20445;-79
2023/11/08 06:30:02;;;;;;;7.83;6.00;;;17.50;65.20;;;;;;5010005;28;20468;-78
2023/11/08 06:32:31;;;;;;;7.83;6.00;;;17.50;65.10;;;;;;5001036;28;20508;-78
2023/11/08 06:35:00;;;;;;;8.00;6.10;;;17.50;64.90;;;;;;4996457;28;20531;-77
2023/11/08 06:37:29;;;;;;;8.00;6.30;;;17.50;65.30;;;;;;4997351;28;20477;-77
2023/11/08 06:39:58;;;;;;;7.23;5.73;;;17.50;65.10;;;;;;4995498;28;20500;-77
2023/11/08 06:42:28;;;;;;;9.17;6.03;;;17.50;65.20;;;;;;4997574;28;20552;-76
2023/11/08 06:44:59;;;;;;;7.70;6.30;;;17.50;65.30;;;;;;5013430;28;20446;-77
2023/11/08 06:47:29;;;;;;;10.50;6.37;;;17.50;65.20;;;;;;5011839;28;20441;-77
2023/11/08 06:53:38;;;;;;;7.77;5.57;;;17.60;65.60;;;;;;5015158;28;20404;-78
2023/11/08 06:56:09;;;;;;;7.93;5.47;;;17.50;65.60;;;;;;5020133;28;20490;-77
2023/11/08 06:58:38;;;;;;;8.67;6.27;;;17.60;65.70;;;;;;5022012;28;21019;-77
2023/11/08 07:01:07;;;;;;;6.70;5.63;;;17.60;65.90;;;;;;5015119;28;20544;-78
2023/11/08 07:03:39;;;;;;;7.63;6.00;;;17.60;65.70;;;;;;5014238;28;20499;-80
2023/11/08 07:06:08;;;;;;;8.67;6.30;;;17.60;65.60;;;;;;5013160;28;20459;-78
2023/11/08 07:08:36;;;;;;;7.13;6.03;;;17.60;65.70;;;;;;5012711;28;20471;-79
2023/11/08 07:11:05;;;;;;;8.03;5.87;;;17.60;65.80;;;;;;5013513;28;20534;-79
2023/11/08 07:13:34;;;;;;;7.77;5.90;;;17.60;65.70;;;;;;5014412;28;20444;-78
2023/11/08 07:16:04;;;;;;;9.20;5.93;;;17.60;65.70;;;;;;5014744;28;20503;-79
2023/11/08 07:18:32;;;;;;;7.60;5.90;;;17.70;65.80;;;;;;5013943;28;20429;-79
2023/11/08 07:21:00;;;;;;;8.43;5.57;;;17.70;65.70;;;;;;5013323;28;20468;-79
2023/11/08 07:23:29;;;;;;;11.93;5.80;;;17.70;65.80;;;;;;5013913;28;20452;-79
2023/11/08 07:25:57;;;;;;;7.30;6.10;;;17.70;65.70;;;;;;5015219;28;20539;-78
2023/11/08 07:28:25;;;;;;;8.40;6.07;;;17.70;66.00;;;;;;5012911;28;20539;-78
2023/11/08 07:30:53;;;;;;;6.80;5.60;;;17.70;66.00;;;;;;5012904;28;20930;-79
2023/11/08 07:33:23;;;;;;;8.37;5.80;;;17.70;65.90;;;;;;5013379;28;20499;-78
2023/11/08 07:35:51;;;;;;;7.53;5.90;;;17.70;65.80;;;;;;5012947;28;20452;-78
2023/11/08 07:38:19;;;;;;;7.53;5.70;;;17.70;65.80;;;;;;5013314;28;20456;-78
2023/11/08 07:40:48;;;;;;;10.43;6.30;;;17.70;65.80;;;;;;5013055;28;20540;-79
2023/11/08 07:43:17;;;;;;;8.90;6.10;;;17.70;66.60;;;;;;5013161;28;20468;-79
2023/11/08 07:45:48;;;;;;;8.10;5.67;;;17.80;66.00;;;;;;5013605;28;20441;-78
2023/11/08 07:48:16;;;;;;;6.10;5.50;;;17.70;66.00;;;;;;5013506;28;20440;-79
2023/11/08 07:50:45;;;;;;;6.73;5.60;;;17.80;66.20;;;;;;5013483;28;20483;-79
2023/11/08 07:53:13;;;;;;;8.70;6.60;;;17.80;66.10;;;;;;5014133;28;20445;-79
2023/11/08 07:55:42;;;;;;;9.30;6.30;;;17.80;65.70;;;;;;5013766;28;20503;-78
2023/11/08 07:58:10;;;;;;;11.07;6.10;;;17.80;66.10;;;;;;5013625;28;20444;-79
2023/11/08 08:00:39;;;;;;;8.37;6.37;;;17.90;66.00;;;;;;5014076;28;20469;-78
2023/11/08 08:03:07;;;;;;;7.90;6.23;;;17.90;66.10;;;;;;5013781;28;20444;-80
2023/11/08 08:05:35;;;;;;;7.57;5.87;;;17.90;65.90;;;;;;5013857;28;20460;-78
2023/11/08 08:08:05;;;;;;;7.37;5.90;;;18.00;66.10;;;;;;5012971;28;20479;-79
2023/11/08 08:10:34;;;;;;;9.67;6.20;;;18.00;65.90;;;;;;5012888;28;20514;-79
2023/11/08 08:13:03;;;;;;;8.63;6.10;;;18.10;66.50;;;;;;5013239;28;20440;-79
2023/11/08 08:15:31;;;;;;;8.50;6.40;;;18.20;66.00;;;;;;5012785;28;20458;-78
2023/11/08 08:17:59;;;;;;;12.00;6.87;;;18.20;65.80;;;;;;5013364;28;20448;-79
2023/11/08 08:20:28;;;;;;;6.13;5.33;;;18.30;65.50;;;;;;5013203;28;20483;-79
2023/11/08 08:22:56;;;;;;;8.90;6.77;;;18.30;65.50;;;;;;5013450;28;20452;-77
2023/11/08 08:25:26;;;;;;;10.87;6.80;;;18.30;65.30;;;;;;5013178;28;20471;-79
2023/11/08 08:27:55;;;;;;;6.80;5.87;;;18.30;65.20;;;;;;5012833;28;20507;-80
2023/11/08 08:30:23;;;;;;;9.27;6.53;;;18.30;65.40;;;;;;5012349;28;20480;-79
2023/11/08 08:32:53;;;;;;;8.27;6.03;;;18.30;65.50;;;;;;5012805;28;20539;-79
2023/11/08 08:35:21;;;;;;;8.70;6.60;;;18.40;65.50;;;;;;5012660;28;20432;-79
2023/11/08 08:37:49;;;;;;;7.33;6.10;;;18.40;65.40;;;;;;5012419;28;20459;-77
2023/11/08 08:40:17;;;;;;;8.30;6.57;;;18.40;65.20;;;;;;5012379;28;20551;-79
2023/11/08 08:42:47;;;;;;;7.03;6.33;;;18.40;65.50;;;;;;5012500;28;20531;-78
2023/11/08 08:45:15;;;;;;;8.40;6.23;;;18.40;65.40;;;;;;5012527;28;20461;-78
2023/11/08 08:47:43;;;;;;;8.07;6.10;;;18.40;65.40;;;;;;5011942;28;20528;-79
2023/11/08 08:50:12;;;;;;;7.97;6.40;;;18.50;65.40;;;;;;5012571;28;20448;-78
2023/11/08 08:52:41;;;;;;;10.70;7.47;;;18.50;65.60;;;;;;5014635;28;20546;-81
2023/11/08 08:55:10;;;;;;;8.93;6.40;;;18.60;65.30;;;;;;5014001;28;20440;-79
2023/11/08 08:57:39;;;;;;;8.40;5.97;;;18.60;65.50;;;;;;5016634;28;20475;-79
2023/11/08 09:00:10;;;;;;;7.53;6.40;;;18.60;65.40;;;;;;5020725;28;21023;-79
2023/11/08 09:02:39;;;;;;;8.07;6.40;;;18.70;65.60;;;;;;5022337;28;20440;-79
2023/11/08 09:05:09;;;;;;;8.67;6.13;;;18.80;65.30;;;;;;5021196;28;20444;-80
2023/11/08 09:07:39;;;;;;;7.60;6.70;;;18.90;65.00;;;;;;5022920;28;20448;-78
2023/11/08 09:10:09;;;;;;;9.87;6.30;;;18.90;64.80;;;;;;5022074;28;20471;-80
2023/11/08 09:12:37;;;;;;;7.10;5.60;;;18.90;64.80;;;;;;5018602;28;20472;-79
2023/11/08 09:15:08;;;;;;;8.97;6.33;;;18.90;64.90;;;;;;5015115;28;20448;-79
2023/11/08 09:17:37;;;;;;;7.67;5.80;;;18.90;65.10;;;;;;5016201;28;20555;-79
2023/11/08 09:20:08;;;;;;;13.83;6.70;;;18.90;65.00;;;;;;5015827;28;20471;-79
2023/11/08 09:22:38;;;;;;;6.27;5.63;;;18.90;65.10;;;;;;4984776;23;20546;-79
2023/11/08 09:25:08;;;;;;;7.90;5.60;;;18.90;65.10;;;;;;4958409;28;20451;-79
2023/11/08 09:27:36;;;;;;;8.97;5.07;;;18.90;65.30;;;;;;4957661;29;20463;-80
2023/11/08 09:30:06;;;;;;;7.67;5.93;;;19.00;65.30;;;;;;4958693;29;20522;-80
2023/11/08 09:32:37;;;;;;;5.60;4.80;;;19.00;65.30;;;;;;4958313;28;20482;-80
2023/11/08 09:35:06;;;;;;;9.80;6.10;;;19.00;65.30;;;;;;4961140;28;20451;-79
2023/11/08 09:37:36;;;;;;;6.53;5.30;;;19.10;65.10;;;;;;4960537;28;20461;-80
2023/11/08 09:40:09;;;;;;;6.87;5.93;;;19.10;65.20;;;;;;4960982;28;20480;-80
2023/11/08 09:42:38;;;;;;;7.70;5.80;;;19.10;65.20;;;;;;4960074;28;20470;-80
2023/11/08 09:45:09;;;;;;;7.43;5.50;;;19.10;65.20;;;;;;4958296;28;20505;-80
2023/11/08 09:47:38;;;;;;;8.77;5.77;;;19.10;65.20;;;;;;4959900;28;20580;-80
2023/11/08 09:50:09;;;;;;;5.97;4.93;;;19.10;65.10;;;;;;4960445;28;20451;-81
2023/11/08 09:52:37;;;;;;;6.47;5.53;;;19.10;65.20;;;;;;4959988;28;20498;-80
2023/11/08 09:55:06;;;;;;;6.13;4.90;;;19.10;65.40;;;;;;4965228;28;20571;-80
2023/11/08 10:00:20;;;;;;;5.80;5.20;;;19.20;65.50;;;;;;4971155;29;20450;-80
2023/11/08 10:02:50;;;;;;;7.07;5.30;;;19.20;65.30;;;;;;4962897;28;20501;-80
2023/11/08 10:05:19;;;;;;;9.03;5.23;;;19.30;65.60;;;;;;4972263;29;20447;-80
2023/11/08 10:07:47;;;;;;;6.40;5.50;;;19.40;65.80;;;;;;4975260;28;20498;-83
2023/11/08 10:10:16;;;;;;;4.77;4.30;;;19.40;65.80;;;;;;4975649;28;20457;-82
2023/11/08 10:12:45;;;;;;;6.23;5.10;;;19.50;65.50;;;;;;4977455;28;20498;-82
2023/11/08 10:15:13;;;;;;;8.00;5.50;;;19.60;65.60;;;;;;4979436;28;20553;-83
2023/11/08 10:17:42;;;;;;;6.10;5.50;;;19.70;65.50;;;;;;4979283;28;20449;-81
2023/11/08 10:20:34;;;;;;;8.30;5.37;;;19.70;65.60;;;;;;4978534;28;20423;-81
2023/11/08 10:23:06;;;;;;;7.53;5.77;;;19.70;65.20;;;;;;4980570;28;20422;-81
2023/11/08 10:25:35;;;;;;;5.17;4.67;;;19.80;65.30;;;;;;4969280;28;20443;-80
2023/11/08 10:28:04;;;;;;;6.50;5.20;;;19.80;65.40;;;;;;4964742;28;20451;-80
2023/11/08 10:30:35;;;;;;;5.77;4.90;;;19.80;65.00;;;;;;4969925;28;20454;-78
2023/11/08 10:33:08;;;;;;;8.80;4.93;;;19.80;65.40;;;;;;4968559;28;20578;-80
2023/11/08 10:35:39;;;;;;;8.67;5.50;;;19.90;65.20;;;;;;4976438;28;20447;-80
2023/11/08 10:38:07;;;;;;;6.60;5.50;;;19.90;65.10;;;;;;4972073;28;20479;-81
2023/11/08 10:40:36;;;;;;;6.33;4.97;;;19.90;64.90;;;;;;4965348;28;20426;-80
2023/11/08 10:43:04;;;;;;;8.43;4.90;;;19.90;64.90;;;;;;4965859;28;20472;-78
2023/11/08 10:45:34;;;;;;;9.10;5.70;;;19.90;65.10;;;;;;4950580;29;20448;-79
2023/11/08 10:48:02;;;;;;;7.50;5.10;;;19.80;65.20;;;;;;4963341;28;20445;-79
2023/11/08 10:50:31;;;;;;;7.03;5.13;;;19.80;65.00;;;;;;4960281;28;20431;-80
2023/11/08 10:53:00;;;;;;;5.30;4.80;;;19.90;65.30;;;;;;4955890;28;20511;-80
2023/11/08 10:55:28;;;;;;;6.27;4.97;;;20.00;65.00;;;;;;4968231;28;20486;-80
2023/11/08 10:58:00;;;;;;;4.70;4.20;;;20.00;64.90;;;;;;4959602;28;20465;-80
2023/11/08 11:00:29;;;;;;;6.50;4.83;;;20.00;65.10;;;;;;4955355;28;20456;-80
2023/11/08 11:02:59;;;;;;;5.40;4.60;;;20.00;65.00;;;;;;4951308;28;20442;-80
2023/11/08 11:05:30;;;;;;;5.13;4.30;;;20.30;66.20;;;;;;4953103;28;21005;-80
2023/11/08 11:08:00;;;;;;;5.07;4.13;;;20.70;66.00;;;;;;4948436;28;20444;-78
2023/11/08 11:10:28;;;;;;;6.23;4.53;;;21.10;64.90;;;;;;4947522;29;20450;-80
2023/11/08 11:13:02;;;;;;;6.20;4.40;;;21.30;63.90;;;;;;4958113;28;20604;-80
2023/11/08 11:15:35;;;;;;;5.67;4.20;;;21.40;63.40;;;;;;4951176;28;20451;-80
2023/11/08 11:18:03;;;;;;;6.90;4.10;;;21.70;63.40;;;;;;4952499;28;20450;-81
2023/11/08 11:20:37;;;;;;;5.03;4.53;;;22.00;63.80;;;;;;4954820;28;20487;-80
2023/11/08 11:23:31;;;;;;;5.70;4.13;;;22.40;63.60;;;;;;4946693;28;20471;-80
2023/11/08 11:25:59;;;;;;;7.10;4.30;;;22.50;61.80;;;;;;4937485;29;20450;-80
2023/11/08 11:28:46;;;;;;;5.63;4.27;;;22.40;61.20;;;;;;4947890;28;20463;-79
2023/11/08 11:31:33;;;;;;;4.53;4.13;;;22.70;61.80;;;;;;4949442;28;20467;-80
2023/11/08 11:34:20;;;;;;;4.37;3.93;;;23.00;61.90;;;;;;4957674;28;20491;-78
2023/11/08 11:37:05;;;;;;;4.30;3.90;;;23.10;61.10;;;;;;4946179;29;20448;-79
2023/11/08 11:39:35;;;;;;;4.60;3.87;;;23.20;60.80;;;;;;4946771;28;20440;-80
2023/11/08 11:42:05;;;;;;;3.87;3.57;;;23.40;61.60;;;;;;4955597;28;20942;-80
2023/11/08 11:44:37;;;;;;;4.30;4.00;;;23.70;61.50;;;;;;4951924;28;20490;-80
2023/11/08 11:47:07;;;;;;;4.47;4.07;;;23.90;60.70;;;;;;4941271;28;20447;-79
2023/11/08 11:49:38;;;;;;;5.40;4.00;;;24.20;60.50;;;;;;4940822;28;20448;-80
2023/11/08 11:52:07;;;;;;;4.53;4.10;;;24.30;59.70;;;;;;4956732;28;20461;-79
2023/11/08 11:54:36;;;;;;;4.10;3.73;;;24.50;59.80;;;;;;4958185;28;20879;-79
2023/11/08 11:57:05;;;;;;;5.00;3.70;;;24.70;59.60;;;;;;4946580;28;20435;-79
2023/11/08 11:59:34;;;;;;;7.33;4.27;;;24.90;59.00;;;;;;4948265;28;20504;-79
2023/11/08 12:02:02;;;;;;;3.90;3.43;;;25.10;58.90;;;;;;4952024;28;20537;-80
2023/11/08 12:04:30;;;;;;;4.33;3.93;;;25.30;58.50;;;;;;4947402;28;20442;-80
2023/11/08 12:06:58;;;;;;;3.90;3.57;;;25.50;58.20;;;;;;4938173;29;20418;-80
2023/11/08 12:09:27;;;;;;;3.83;3.30;;;25.80;57.90;;;;;;4946147;28;20522;-80
2023/11/08 12:11:57;;;;;;;4.20;3.30;;;26.00;57.60;;;;;;4943827;28;20474;-80
2023/11/08 12:14:25;;;;;;;6.80;2.90;;;26.20;57.10;;;;;;4948174;29;20835;-80
2023/11/08 12:16:53;;;;;;;2.77;2.67;;;26.30;56.90;;;;;;4951244;28;20418;-80
2023/11/08 12:19:21;;;;;;;2.73;2.57;;;26.40;56.00;;;;;;4954039;28;20452;-80
2023/11/08 12:21:50;;;;;;;3.27;2.77;;;26.30;55.70;;;;;;4962087;28;20457;-80
2023/11/08 12:24:19;;;;;;;3.07;2.77;;;26.20;56.10;;;;;;4961119;28;20488;-81
2023/11/08 12:26:47;;;;;;;3.30;2.70;;;26.30;56.50;;;;;;4942935;28;20517;-80
2023/11/08 12:29:17;;;;;;;3.80;3.27;;;26.50;56.60;;;;;;4950332;28;20550;-79
2023/11/08 12:31:45;;;;;;;5.40;2.70;;;26.60;56.00;;;;;;4949949;28;20441;-81
2023/11/08 12:34:13;;;;;;;3.10;2.90;;;26.60;55.60;;;;;;4950582;28;20542;-80
2023/11/08 12:36:42;;;;;;;3.40;2.87;;;26.50;55.60;;;;;;4961935;28;20482;-81
2023/11/08 12:39:17;;;;;;;3.40;2.50;;;26.30;55.40;;;;;;4958450;28;20486;-81
2023/11/08 12:41:46;;;;;;;2.70;2.50;;;26.10;55.60;;;;;;4953606;28;20464;-81
2023/11/08 12:44:19;;;;;;;2.93;2.73;;;25.90;55.80;;;;;;4957777;28;20422;-80
2023/11/08 12:46:49;;;;;;;2.80;2.47;;;25.70;56.10;;;;;;4947723;28;20431;-81
2023/11/08 12:49:18;;;;;;;3.80;2.90;;;25.60;56.40;;;;;;4949167;29;20418;-82
2023/11/08 12:51:47;;;;;;;3.20;3.00;;;25.80;57.20;;;;;;4956724;28;20430;-81
2023/11/08 12:54:18;;;;;;;2.70;2.60;;;25.90;56.30;;;;;;4968438;28;20477;-82
2023/11/08 12:56:47;;;;;;;4.23;3.03;;;25.90;56.30;;;;;;4956561;28;20426;-80
2023/11/08 12:59:17;;;;;;;2.97;2.73;;;26.10;56.50;;;;;;4959975;28;20465;-80
2023/11/08 13:01:46;;;;;;;3.23;3.00;;;26.40;56.20;;;;;;4960407;28;20434;-82